• Join FlightAware (Why Join?)
  • Login
  • US Flag 
03:19AM EST


 

Airport Tracker/Info


-or-


 

Live Flight TrackerFlight Track Log ✈ CCA1136 ✈ 21-Aug-2013 ✈ ZBOW / BAV - ZBAA / PEK

Flight Track Log - Related Links

Times and Time Zones

All times are in EDT time to prevent confusion due to time zone crossing. See the CCA1136 flight status page for this flight to view local times or setup timezone preferences in your user account.

Time Position Orientation Groundspeed Altitude Reporting Facility
EDT Latitude Longitude Course Direction KTS MPH feet Rate Location/Type
10:42AM 40.5449 110.3284 93° East  Level Estimated
10:43AM 40.5397 110.4388 94° East  Level Estimated
10:44AM 40.5343 110.5493 94° East  Level Estimated
10:45AM 40.5289 110.6597 94° East  Level Estimated
10:46AM 40.5233 110.7701 94° East  Level Estimated
10:47AM 40.5177 110.8804 94° East  Level Estimated
10:48AM 40.5119 110.9908 94° East  Level Estimated
10:49AM 40.5061 111.1012 94° East  Level Estimated
10:50AM 40.5001 111.2115 94° East  Level Estimated
10:51AM 40.4940 111.3218 94° East  Level Estimated
10:52AM 40.4878 111.4321 94° East  Level Estimated
10:53AM 40.4815 111.5423 94° East  Level Estimated
10:54AM 40.4751 111.6525 94° East  Level Estimated
10:55AM 40.4686 111.7628 94° East  Level Estimated
10:56AM 40.4620 111.8730 94° East  Level Estimated
10:57AM 40.4553 111.9831 95° East  Level Estimated
10:58AM 40.4485 112.0933 95° East  Level Estimated
10:59AM 40.4416 112.2034 95° East  Level Estimated
11:00AM 40.4346 112.3135 95° East  Level Estimated
11:01AM 40.4275 112.4236 95° East  Level Estimated
11:02AM 40.4202 112.5337 95° East  Level Estimated
11:03AM 40.4129 112.6437 95° East  Level Estimated
11:04AM 40.4055 112.7537 95° East  Level Estimated
11:05AM 40.3979 112.8637 95° East  Level Estimated
11:06AM 40.3903 112.9737 95° East  Level Estimated
11:07AM 40.3825 113.0836 95° East  Level Estimated
11:08AM 40.3747 113.1935 95° East  Level Estimated
11:09AM 40.3667 113.3034 95° East  Level Estimated
11:10AM 40.3587 113.4133 95° East  Level Estimated
11:11AM 40.3505 113.5231 96° East  Level Estimated
11:12AM 40.3422 113.6329 96° East  Level Estimated
11:13AM 40.3339 113.7427 96° East  Level Estimated
11:14AM 40.3254 113.8524 96° East  Level Estimated
11:15AM 40.3168 113.9622 96° East  Level Estimated
11:16AM 40.3081 114.0719 96° East  Level Estimated
11:17AM 40.2993 114.1815 96° East  Level Estimated
11:18AM 40.2904 114.2912 96° East  Level Estimated
11:19AM 40.2814 114.4008 96° East  Level Estimated
11:20AM 40.2723 114.5104 96° East  Level Estimated
11:21AM 40.2631 114.6199 96° East  Level Estimated
11:22AM 40.2538 114.7294 96° East  Level Estimated
11:23AM 40.2444 114.8389 96° East  Level Estimated
11:24AM 40.2349 114.9484 96° East  Level Estimated
11:25AM 40.2253 115.0578 97° East  Level Estimated
11:26AM 40.2156 115.1672 97° East  Level Estimated
11:27AM 40.2058 115.2766 97° East  Level Estimated
11:28AM 40.1959 115.3859 97° East  Level Estimated
11:29AM 40.1858 115.4952 97° East  Level Estimated
11:30AM 40.1757 115.6045 97° East  Level Estimated
11:31AM 40.1655 115.7137 97° East  Level Estimated
11:32AM 40.1551 115.8229 97° East  Level Estimated
11:33AM 40.1447 115.9321 97° East  Level Estimated
11:34AM 40.1342 116.0412 97° East  Level Estimated
11:35AM 40.1235 116.1503 97° East  Level Estimated
11:36AM 40.1128 116.2594 97° East  Level Estimated
11:37AM 40.1019 116.3684 97° East  Level Estimated
11:38AM 40.0910 116.4774 97° East  Level Estimated
11:39AM 40.0801 116.5846 98° East  Level Estimated
11:40AM 40.0801 116.5846 288° West  Level Estimated
11:41AM 40.0801 116.5846 288° West  Level Estimated
11:42AM 40.0801 116.5846 288° West  Level Estimated
11:43AM 40.0801 116.5846 288° West  Level Estimated